sensor_id;sensor_type;location;lat;lon;timestamp;temperature;humidity
46366;DHT22;32073;49.166;8.076;2023-02-13T00:01:30;9.00;61.80
46366;DHT22;32073;49.166;8.076;2023-02-13T00:05:30;8.90;61.80
46366;DHT22;32073;49.166;8.076;2023-02-13T00:09:31;9.00;61.90
46366;DHT22;32073;49.166;8.076;2023-02-13T00:13:33;8.90;61.80
46366;DHT22;32073;49.166;8.076;2023-02-13T00:17:35;8.90;61.90
46366;DHT22;32073;49.166;8.076;2023-02-13T00:21:36;8.90;61.90
46366;DHT22;32073;49.166;8.076;2023-02-13T00:25:37;8.90;61.90
46366;DHT22;32073;49.166;8.076;2023-02-13T00:29:38;8.90;61.90
46366;DHT22;32073;49.166;8.076;2023-02-13T00:33:39;8.90;61.90
46366;DHT22;32073;49.166;8.076;2023-02-13T00:37:40;8.90;61.90
46366;DHT22;32073;49.166;8.076;2023-02-13T00:41:41;8.90;61.90
46366;DHT22;32073;49.166;8.076;2023-02-13T00:45:42;8.80;61.80
46366;DHT22;32073;49.166;8.076;2023-02-13T00:49:42;8.80;61.90
46366;DHT22;32073;49.166;8.076;2023-02-13T00:53:43;8.80;62.00
46366;DHT22;32073;49.166;8.076;2023-02-13T00:57:44;8.70;61.90
46366;DHT22;32073;49.166;8.076;2023-02-13T01:01:45;8.70;61.90
46366;DHT22;32073;49.166;8.076;2023-02-13T01:05:46;8.60;61.90
46366;DHT22;32073;49.166;8.076;2023-02-13T01:09:47;8.60;62.00
46366;DHT22;32073;49.166;8.076;2023-02-13T01:13:48;8.60;62.00
46366;DHT22;32073;49.166;8.076;2023-02-13T01:17:48;8.60;62.00
46366;DHT22;32073;49.166;8.076;2023-02-13T01:21:49;8.50;62.00
46366;DHT22;32073;49.166;8.076;2023-02-13T01:25:49;8.50;62.00
46366;DHT22;32073;49.166;8.076;2023-02-13T01:29:50;8.50;62.10
46366;DHT22;32073;49.166;8.076;2023-02-13T01:33:51;8.40;62.10
46366;DHT22;32073;49.166;8.076;2023-02-13T01:37:54;8.40;62.10
46366;DHT22;32073;49.166;8.076;2023-02-13T01:41:55;8.40;62.20
46366;DHT22;32073;49.166;8.076;2023-02-13T01:46:01;8.40;62.30
46366;DHT22;32073;49.166;8.076;2023-02-13T01:50:10;8.30;62.30
46366;DHT22;32073;49.166;8.076;2023-02-13T01:54:19;8.30;62.60
46366;DHT22;32073;49.166;8.076;2023-02-13T01:58:30;8.30;62.40
46366;DHT22;32073;49.166;8.076;2023-02-13T02:02:35;8.20;62.40
46366;DHT22;32073;49.166;8.076;2023-02-13T02:06:46;8.20;62.40
46366;DHT22;32073;49.166;8.076;2023-02-13T02:10:53;8.10;62.70
46366;DHT22;32073;49.166;8.076;2023-02-13T02:14:58;8.10;62.30
46366;DHT22;32073;49.166;8.076;2023-02-13T02:19:03;8.10;62.50
46366;DHT22;32073;49.166;8.076;2023-02-13T02:23:14;8.00;62.60
46366;DHT22;32073;49.166;8.076;2023-02-13T02:45:12;7.90;63.20
46366;DHT22;32073;49.166;8.076;2023-02-13T02:49:21;7.80;62.70
46366;DHT22;32073;49.166;8.076;2023-02-13T02:58:18;7.80;62.80
46366;DHT22;32073;49.166;8.076;2023-02-13T03:02:55;7.80;63.00
46366;DHT22;32073;49.166;8.076;2023-02-13T03:07:16;7.70;62.60
46366;DHT22;32073;49.166;8.076;2023-02-13T03:11:18;7.70;62.80
46366;DHT22;32073;49.166;8.076;2023-02-13T03:15:40;7.70;62.80
46366;DHT22;32073;49.166;8.076;2023-02-13T03:20:22;7.70;62.90
46366;DHT22;32073;49.166;8.076;2023-02-13T03:25:20;7.70;63.30
46366;DHT22;32073;49.166;8.076;2023-02-13T03:29:45;7.60;63.40
46366;DHT22;32073;49.166;8.076;2023-02-13T03:34:16;7.60;63.20
46366;DHT22;32073;49.166;8.076;2023-02-13T03:42:51;7.60;63.30
46366;DHT22;32073;49.166;8.076;2023-02-13T03:47:01;7.60;63.40
46366;DHT22;32073;49.166;8.076;2023-02-13T03:51:03;7.60;63.20
46366;DHT22;32073;49.166;8.076;2023-02-13T03:55:15;7.50;63.10
46366;DHT22;32073;49.166;8.076;2023-02-13T03:59:36;7.60;63.50
46366;DHT22;32073;49.166;8.076;2023-02-13T04:07:58;7.60;63.90
46366;DHT22;32073;49.166;8.076;2023-02-13T04:12:25;7.50;63.20
46366;DHT22;32073;49.166;8.076;2023-02-13T04:16:37;7.60;63.50
46366;DHT22;32073;49.166;8.076;2023-02-13T04:20:40;7.60;63.50
46366;DHT22;32073;49.166;8.076;2023-02-13T04:24:41;7.50;63.20
46366;DHT22;32073;49.166;8.076;2023-02-13T04:28:42;7.50;63.20
46366;DHT22;32073;49.166;8.076;2023-02-13T04:32:42;7.50;63.20
46366;DHT22;32073;49.166;8.076;2023-02-13T04:36:43;7.50;63.30
46366;DHT22;32073;49.166;8.076;2023-02-13T04:40:44;7.50;63.40
46366;DHT22;32073;49.166;8.076;2023-02-13T04:44:44;7.50;64.00
46366;DHT22;32073;49.166;8.076;2023-02-13T04:48:45;7.50;63.40
46366;DHT22;32073;49.166;8.076;2023-02-13T04:52:46;7.40;63.30
46366;DHT22;32073;49.166;8.076;2023-02-13T04:56:47;7.40;63.40
46366;DHT22;32073;49.166;8.076;2023-02-13T05:00:47;7.40;63.30
46366;DHT22;32073;49.166;8.076;2023-02-13T05:04:48;7.40;63.30
46366;DHT22;32073;49.166;8.076;2023-02-13T05:08:49;7.40;63.40
46366;DHT22;32073;49.166;8.076;2023-02-13T05:12:49;7.40;63.40
46366;DHT22;32073;49.166;8.076;2023-02-13T05:16:50;7.40;63.40
46366;DHT22;32073;49.166;8.076;2023-02-13T05:20:50;7.40;63.40
46366;DHT22;32073;49.166;8.076;2023-02-13T05:25:10;7.30;63.40
46366;DHT22;32073;49.166;8.076;2023-02-13T05:29:10;7.30;63.40
46366;DHT22;32073;49.166;8.076;2023-02-13T05:33:21;7.30;63.50
46366;DHT22;32073;49.166;8.076;2023-02-13T05:37:22;7.30;63.50
46366;DHT22;32073;49.166;8.076;2023-02-13T05:41:23;7.20;63.50
46366;DHT22;32073;49.166;8.076;2023-02-13T05:45:23;7.20;63.50
46366;DHT22;32073;49.166;8.076;2023-02-13T05:49:24;7.20;63.50
46366;DHT22;32073;49.166;8.076;2023-02-13T05:53:25;7.20;63.50
46366;DHT22;32073;49.166;8.076;2023-02-13T05:57:26;7.20;63.60
46366;DHT22;32073;49.166;8.076;2023-02-13T06:01:26;7.20;63.60
46366;DHT22;32073;49.166;8.076;2023-02-13T06:05:27;7.20;63.60
46366;DHT22;32073;49.166;8.076;2023-02-13T06:09:28;7.20;63.70
46366;DHT22;32073;49.166;8.076;2023-02-13T06:13:28;7.20;63.60
46366;DHT22;32073;49.166;8.076;2023-02-13T06:17:29;7.10;63.50
46366;DHT22;32073;49.166;8.076;2023-02-13T06:21:30;7.20;63.50
46366;DHT22;32073;49.166;8.076;2023-02-13T06:25:34;7.10;63.50
46366;DHT22;32073;49.166;8.076;2023-02-13T06:29:35;7.10;63.50
46366;DHT22;32073;49.166;8.076;2023-02-13T06:33:36;7.10;63.50
46366;DHT22;32073;49.166;8.076;2023-02-13T06:37:37;7.00;63.50
46366;DHT22;32073;49.166;8.076;2023-02-13T06:41:38;7.00;63.50
46366;DHT22;32073;49.166;8.076;2023-02-13T06:45:39;7.00;63.50
46366;DHT22;32073;49.166;8.076;2023-02-13T06:49:40;7.00;63.50
46366;DHT22;32073;49.166;8.076;2023-02-13T06:53:41;7.00;63.50
46366;DHT22;32073;49.166;8.076;2023-02-13T06:57:42;7.00;63.60
46366;DHT22;32073;49.166;8.076;2023-02-13T07:01:43;7.00;63.50
46366;DHT22;32073;49.166;8.076;2023-02-13T07:05:44;6.90;63.40
46366;DHT22;32073;49.166;8.076;2023-02-13T07:09:45;6.90;63.40
46366;DHT22;32073;49.166;8.076;2023-02-13T07:13:46;6.90;63.40
46366;DHT22;32073;49.166;8.076;2023-02-13T07:17:46;6.90;63.50
46366;DHT22;32073;49.166;8.076;2023-02-13T07:21:47;6.90;63.60
46366;DHT22;32073;49.166;8.076;2023-02-13T07:25:48;6.90;63.70
46366;DHT22;32073;49.166;8.076;2023-02-13T07:29:48;6.90;63.70
46366;DHT22;32073;49.166;8.076;2023-02-13T07:33:49;6.90;63.70
46366;DHT22;32073;49.166;8.076;2023-02-13T07:37:52;6.90;63.60
46366;DHT22;32073;49.166;8.076;2023-02-13T07:41:54;6.90;63.70
46366;DHT22;32073;49.166;8.076;2023-02-13T07:45:59;6.80;63.60
46366;DHT22;32073;49.166;8.076;2023-02-13T07:50:02;6.90;63.90
46366;DHT22;32073;49.166;8.076;2023-02-13T07:54:05;6.80;63.80
46366;DHT22;32073;49.166;8.076;2023-02-13T07:58:05;6.90;63.90
46366;DHT22;32073;49.166;8.076;2023-02-13T08:02:10;6.90;64.00
46366;DHT22;32073;49.166;8.076;2023-02-13T08:06:13;6.90;64.20
46366;DHT22;32073;49.166;8.076;2023-02-13T08:10:14;6.90;64.10
46366;DHT22;32073;49.166;8.076;2023-02-13T08:14:34;6.90;64.20
46366;DHT22;32073;49.166;8.076;2023-02-13T08:18:34;7.00;64.20
46366;DHT22;32073;49.166;8.076;2023-02-13T08:22:36;7.00;64.30
46366;DHT22;32073;49.166;8.076;2023-02-13T08:26:37;7.10;64.30
46366;DHT22;32073;49.166;8.076;2023-02-13T08:30:38;7.10;64.40
46366;DHT22;32073;49.166;8.076;2023-02-13T08:34:39;7.10;64.50
46366;DHT22;32073;49.166;8.076;2023-02-13T08:38:39;7.20;64.50
46366;DHT22;32073;49.166;8.076;2023-02-13T08:42:41;7.30;64.60
46366;DHT22;32073;49.166;8.076;2023-02-13T08:46:43;7.30;64.60
46366;DHT22;32073;49.166;8.076;2023-02-13T08:50:44;7.40;64.60
46366;DHT22;32073;49.166;8.076;2023-02-13T08:54:45;7.40;64.60
46366;DHT22;32073;49.166;8.076;2023-02-13T08:58:49;7.50;64.50
46366;DHT22;32073;49.166;8.076;2023-02-13T09:02:50;7.50;64.40
46366;DHT22;32073;49.166;8.076;2023-02-13T09:06:50;7.50;64.20
46366;DHT22;32073;49.166;8.076;2023-02-13T09:10:56;7.60;64.30
46366;DHT22;32073;49.166;8.076;2023-02-13T09:15:00;7.60;64.30
46366;DHT22;32073;49.166;8.076;2023-02-13T09:19:01;7.60;64.20
46366;DHT22;32073;49.166;8.076;2023-02-13T09:23:02;7.70;64.40
46366;DHT22;32073;49.166;8.076;2023-02-13T09:27:04;7.70;64.40
46366;DHT22;32073;49.166;8.076;2023-02-13T09:31:10;7.80;64.20
46366;DHT22;32073;49.166;8.076;2023-02-13T09:35:14;7.80;64.20
46366;DHT22;32073;49.166;8.076;2023-02-13T09:39:15;7.90;64.20
46366;DHT22;32073;49.166;8.076;2023-02-13T09:43:28;7.90;64.10
46366;DHT22;32073;49.166;8.076;2023-02-13T09:47:40;7.80;64.20
46366;DHT22;32073;49.166;8.076;2023-02-13T09:51:43;7.90;64.10
46366;DHT22;32073;49.166;8.076;2023-02-13T09:56:09;7.90;63.90
46366;DHT22;32073;49.166;8.076;2023-02-13T10:00:31;7.90;63.80
46366;DHT22;32073;49.166;8.076;2023-02-13T10:04:55;7.90;63.80
46366;DHT22;32073;49.166;8.076;2023-02-13T10:09:11;7.80;64.30
46366;DHT22;32073;49.166;8.076;2023-02-13T10:13:56;7.80;63.70
46366;DHT22;32073;49.166;8.076;2023-02-13T10:18:08;7.80;64.10
46366;DHT22;32073;49.166;8.076;2023-02-13T10:22:34;7.70;63.60
46366;DHT22;32073;49.166;8.076;2023-02-13T10:26:40;7.70;64.10
46366;DHT22;32073;49.166;8.076;2023-02-13T10:30:49;7.90;64.60
46366;DHT22;32073;49.166;8.076;2023-02-13T10:34:54;7.90;64.60
46366;DHT22;32073;49.166;8.076;2023-02-13T10:43:08;8.10;64.50
46366;DHT22;32073;49.166;8.076;2023-02-13T10:47:24;8.30;64.60
46366;DHT22;32073;49.166;8.076;2023-02-13T10:52:00;8.40;64.60
46366;DHT22;32073;49.166;8.076;2023-02-13T10:56:47;8.60;64.50
46366;DHT22;32073;49.166;8.076;2023-02-13T11:01:18;8.70;64.00
46366;DHT22;32073;49.166;8.076;2023-02-13T11:05:36;8.70;63.70
46366;DHT22;32073;49.166;8.076;2023-02-13T11:09:40;8.70;63.90
46366;DHT22;32073;49.166;8.076;2023-02-13T11:13:43;8.70;64.00
46366;DHT22;32073;49.166;8.076;2023-02-13T11:17:43;8.80;64.20
46366;DHT22;32073;49.166;8.076;2023-02-13T11:21:49;9.00;64.10
46366;DHT22;32073;49.166;8.076;2023-02-13T11:26:06;9.00;64.00
46366;DHT22;32073;49.166;8.076;2023-02-13T11:34:30;9.20;64.10
46366;DHT22;32073;49.166;8.076;2023-02-13T11:38:32;9.30;64.40
46366;DHT22;32073;49.166;8.076;2023-02-13T11:42:35;9.50;64.50
46366;DHT22;32073;49.166;8.076;2023-02-13T11:46:46;9.60;64.10
46366;DHT22;32073;49.166;8.076;2023-02-13T11:50:53;9.70;63.60
46366;DHT22;32073;49.166;8.076;2023-02-13T11:55:00;9.80;63.50
46366;DHT22;32073;49.166;8.076;2023-02-13T11:59:03;9.90;63.50
46366;DHT22;32073;49.166;8.076;2023-02-13T12:07:30;10.00;63.30
46366;DHT22;32073;49.166;8.076;2023-02-13T12:11:45;10.10;63.30
46366;DHT22;32073;49.166;8.076;2023-02-13T12:15:58;10.20;63.30
46366;DHT22;32073;49.166;8.076;2023-02-13T12:20:01;10.30;63.50
46366;DHT22;32073;49.166;8.076;2023-02-13T12:28:16;10.50;63.40
46366;DHT22;32073;49.166;8.076;2023-02-13T12:37:26;10.60;62.90
46366;DHT22;32073;49.166;8.076;2023-02-13T12:41:57;10.70;63.10
46366;DHT22;32073;49.166;8.076;2023-02-13T12:46:35;10.80;63.10
46366;DHT22;32073;49.166;8.076;2023-02-13T13:22:33;11.40;62.00
46366;DHT22;32073;49.166;8.076;2023-02-13T13:26:45;11.50;61.90
46366;DHT22;32073;49.166;8.076;2023-02-13T13:30:49;11.50;61.80
46366;DHT22;32073;49.166;8.076;2023-02-13T13:34:50;11.60;62.30
46366;DHT22;32073;49.166;8.076;2023-02-13T13:38:56;11.60;61.90
46366;DHT22;32073;49.166;8.076;2023-02-13T13:43:21;11.70;61.90
46366;DHT22;32073;49.166;8.076;2023-02-13T13:47:49;11.70;61.50
46366;DHT22;32073;49.166;8.076;2023-02-13T13:52:30;11.80;61.40
46366;DHT22;32073;49.166;8.076;2023-02-13T14:01:22;12.00;61.00
46366;DHT22;32073;49.166;8.076;2023-02-13T14:05:57;12.00;60.80
46366;DHT22;32073;49.166;8.076;2023-02-13T14:09:57;12.10;61.30
46366;DHT22;32073;49.166;8.076;2023-02-13T14:13:59;12.20;61.30
46366;DHT22;32073;49.166;8.076;2023-02-13T14:18:19;12.20;61.10
46366;DHT22;32073;49.166;8.076;2023-02-13T14:26:34;12.30;60.70
46366;DHT22;32073;49.166;8.076;2023-02-13T14:30:37;12.30;60.90
46366;DHT22;32073;49.166;8.076;2023-02-13T14:34:39;12.30;60.70
46366;DHT22;32073;49.166;8.076;2023-02-13T14:38:40;12.40;60.70
46366;DHT22;32073;49.166;8.076;2023-02-13T14:42:46;12.40;60.60
46366;DHT22;32073;49.166;8.076;2023-02-13T14:46:53;12.40;60.50
46366;DHT22;32073;49.166;8.076;2023-02-13T14:50:55;12.40;60.20
46366;DHT22;32073;49.166;8.076;2023-02-13T14:55:06;12.40;60.20
46366;DHT22;32073;49.166;8.076;2023-02-13T14:59:17;12.40;59.70
46366;DHT22;32073;49.166;8.076;2023-02-13T15:07:49;12.40;59.50
46366;DHT22;32073;49.166;8.076;2023-02-13T15:11:55;12.50;59.80
46366;DHT22;32073;49.166;8.076;2023-02-13T15:16:05;12.50;59.80
46366;DHT22;32073;49.166;8.076;2023-02-13T15:20:25;12.50;59.40
46366;DHT22;32073;49.166;8.076;2023-02-13T15:24:35;12.50;59.00
46366;DHT22;32073;49.166;8.076;2023-02-13T15:28:37;12.50;59.20
46366;DHT22;32073;49.166;8.076;2023-02-13T15:32:38;12.50;59.50
46366;DHT22;32073;49.166;8.076;2023-02-13T15:36:40;12.40;59.20
46366;DHT22;32073;49.166;8.076;2023-02-13T15:40:41;12.50;59.00
46366;DHT22;32073;49.166;8.076;2023-02-13T15:44:46;12.40;58.90
46366;DHT22;32073;49.166;8.076;2023-02-13T15:48:48;12.40;58.70
46366;DHT22;32073;49.166;8.076;2023-02-13T15:52:50;12.40;58.70
46366;DHT22;32073;49.166;8.076;2023-02-13T15:56:53;12.40;58.70
46366;DHT22;32073;49.166;8.076;2023-02-13T16:01:02;12.40;58.60
46366;DHT22;32073;49.166;8.076;2023-02-13T16:05:06;12.30;58.30
46366;DHT22;32073;49.166;8.076;2023-02-13T16:09:45;12.30;58.50
46366;DHT22;32073;49.166;8.076;2023-02-13T16:18:18;12.30;58.30
46366;DHT22;32073;49.166;8.076;2023-02-13T16:22:30;12.20;58.20
46366;DHT22;32073;49.166;8.076;2023-02-13T16:26:35;12.20;58.30
46366;DHT22;32073;49.166;8.076;2023-02-13T16:30:44;12.10;58.40
46366;DHT22;32073;49.166;8.076;2023-02-13T16:34:48;12.10;58.20
46366;DHT22;32073;49.166;8.076;2023-02-13T16:38:51;12.00;58.30
46366;DHT22;32073;49.166;8.076;2023-02-13T16:42:53;12.00;58.40
46366;DHT22;32073;49.166;8.076;2023-02-13T16:47:33;12.00;58.40
46366;DHT22;32073;49.166;8.076;2023-02-13T16:56:09;11.80;58.20
46366;DHT22;32073;49.166;8.076;2023-02-13T17:00:18;11.70;58.20
46366;DHT22;32073;49.166;8.076;2023-02-13T17:04:24;11.70;58.20
46366;DHT22;32073;49.166;8.076;2023-02-13T17:08:26;11.60;58.20
46366;DHT22;32073;49.166;8.076;2023-02-13T17:12:30;11.50;58.20
46366;DHT22;32073;49.166;8.076;2023-02-13T17:16:31;11.40;58.00
46366;DHT22;32073;49.166;8.076;2023-02-13T17:20:34;11.30;58.00
46366;DHT22;32073;49.166;8.076;2023-02-13T17:24:37;11.20;58.00
46366;DHT22;32073;49.166;8.076;2023-02-13T17:28:38;11.10;58.00
46366;DHT22;32073;49.166;8.076;2023-02-13T17:32:39;11.10;58.20
46366;DHT22;32073;49.166;8.076;2023-02-13T17:36:41;11.00;58.10
46366;DHT22;32073;49.166;8.076;2023-02-13T17:40:43;10.90;58.10
46366;DHT22;32073;49.166;8.076;2023-02-13T17:44:44;10.90;58.10
46366;DHT22;32073;49.166;8.076;2023-02-13T17:48:45;10.80;58.10
46366;DHT22;32073;49.166;8.076;2023-02-13T17:52:46;10.70;58.00
46366;DHT22;32073;49.166;8.076;2023-02-13T17:56:48;10.70;58.00
46366;DHT22;32073;49.166;8.076;2023-02-13T18:00:49;10.70;58.10
46366;DHT22;32073;49.166;8.076;2023-02-13T18:04:50;10.60;58.00
46366;DHT22;32073;49.166;8.076;2023-02-13T18:08:50;10.50;58.00
46366;DHT22;32073;49.166;8.076;2023-02-13T18:12:52;10.50;58.00
46366;DHT22;32073;49.166;8.076;2023-02-13T18:16:53;10.50;58.00
46366;DHT22;32073;49.166;8.076;2023-02-13T18:20:56;10.40;58.00
46366;DHT22;32073;49.166;8.076;2023-02-13T18:24:57;10.40;58.10
46366;DHT22;32073;49.166;8.076;2023-02-13T18:28:58;10.30;58.10
46366;DHT22;32073;49.166;8.076;2023-02-13T18:32:58;10.30;58.10
46366;DHT22;32073;49.166;8.076;2023-02-13T18:36:59;10.30;58.20
46366;DHT22;32073;49.166;8.076;2023-02-13T18:41:00;10.20;58.10
46366;DHT22;32073;49.166;8.076;2023-02-13T18:45:02;10.20;58.00
46366;DHT22;32073;49.166;8.076;2023-02-13T18:49:03;10.20;58.00
46366;DHT22;32073;49.166;8.076;2023-02-13T18:53:04;10.10;58.00
46366;DHT22;32073;49.166;8.076;2023-02-13T18:57:05;10.10;58.00
46366;DHT22;32073;49.166;8.076;2023-02-13T19:01:07;10.00;57.90
46366;DHT22;32073;49.166;8.076;2023-02-13T19:05:09;9.90;58.00
46366;DHT22;32073;49.166;8.076;2023-02-13T19:09:10;10.00;58.20
46366;DHT22;32073;49.166;8.076;2023-02-13T19:13:10;10.00;58.30
46366;DHT22;32073;49.166;8.076;2023-02-13T19:17:11;9.90;58.30
46366;DHT22;32073;49.166;8.076;2023-02-13T19:21:12;9.90;58.40
46366;DHT22;32073;49.166;8.076;2023-02-13T19:25:13;9.90;58.50
46366;DHT22;32073;49.166;8.076;2023-02-13T19:29:14;9.90;58.60
46366;DHT22;32073;49.166;8.076;2023-02-13T19:33:15;9.90;59.20
46366;DHT22;32073;49.166;8.076;2023-02-13T19:37:16;9.90;58.60
46366;DHT22;32073;49.166;8.076;2023-02-13T19:41:17;9.90;58.60
46366;DHT22;32073;49.166;8.076;2023-02-13T19:45:17;9.90;58.60
46366;DHT22;32073;49.166;8.076;2023-02-13T19:49:18;9.90;58.60
46366;DHT22;32073;49.166;8.076;2023-02-13T19:53:21;9.90;58.60
46366;DHT22;32073;49.166;8.076;2023-02-13T19:57:22;9.90;58.60
46366;DHT22;32073;49.166;8.076;2023-02-13T20:01:24;9.90;58.60
46366;DHT22;32073;49.166;8.076;2023-02-13T20:05:25;9.90;58.60
46366;DHT22;32073;49.166;8.076;2023-02-13T20:09:26;9.80;58.50
46366;DHT22;32073;49.166;8.076;2023-02-13T20:13:27;9.80;58.50
46366;DHT22;32073;49.166;8.076;2023-02-13T20:17:28;9.70;58.50
46366;DHT22;32073;49.166;8.076;2023-02-13T20:21:28;9.70;58.60
46366;DHT22;32073;49.166;8.076;2023-02-13T20:25:29;9.70;58.60
46366;DHT22;32073;49.166;8.076;2023-02-13T20:29:31;9.60;58.60
46366;DHT22;32073;49.166;8.076;2023-02-13T20:33:35;9.60;58.70
46366;DHT22;32073;49.166;8.076;2023-02-13T20:37:36;9.70;58.80
46366;DHT22;32073;49.166;8.076;2023-02-13T20:41:37;9.60;58.70
46366;DHT22;32073;49.166;8.076;2023-02-13T20:45:37;9.50;58.70
46366;DHT22;32073;49.166;8.076;2023-02-13T20:49:38;9.50;58.80
46366;DHT22;32073;49.166;8.076;2023-02-13T20:53:40;9.50;58.80
46366;DHT22;32073;49.166;8.076;2023-02-13T20:57:41;9.40;58.80
46366;DHT22;32073;49.166;8.076;2023-02-13T21:01:42;9.40;58.80
46366;DHT22;32073;49.166;8.076;2023-02-13T21:05:46;9.40;58.90
46366;DHT22;32073;49.166;8.076;2023-02-13T21:09:46;9.40;58.90
46366;DHT22;32073;49.166;8.076;2023-02-13T21:13:47;9.40;58.90
46366;DHT22;32073;49.166;8.076;2023-02-13T21:17:48;9.30;58.90
46366;DHT22;32073;49.166;8.076;2023-02-13T21:21:49;9.30;58.90
46366;DHT22;32073;49.166;8.076;2023-02-13T21:25:49;9.30;58.90
46366;DHT22;32073;49.166;8.076;2023-02-13T21:29:50;9.30;58.90
46366;DHT22;32073;49.166;8.076;2023-02-13T21:33:51;9.20;58.80
46366;DHT22;32073;49.166;8.076;2023-02-13T21:37:52;9.20;58.80
46366;DHT22;32073;49.166;8.076;2023-02-13T21:41:54;9.10;58.80
46366;DHT22;32073;49.166;8.076;2023-02-13T21:46:07;9.10;58.80
46366;DHT22;32073;49.166;8.076;2023-02-13T21:50:10;9.10;58.80
46366;DHT22;32073;49.166;8.076;2023-02-13T21:54:13;9.00;58.80
46366;DHT22;32073;49.166;8.076;2023-02-13T21:58:14;9.00;58.80
46366;DHT22;32073;49.166;8.076;2023-02-13T22:02:14;8.90;58.80
46366;DHT22;32073;49.166;8.076;2023-02-13T22:06:16;8.90;58.80
46366;DHT22;32073;49.166;8.076;2023-02-13T22:10:19;8.90;58.80
46366;DHT22;32073;49.166;8.076;2023-02-13T22:14:19;8.80;58.80
46366;DHT22;32073;49.166;8.076;2023-02-13T22:18:20;8.80;58.90
46366;DHT22;32073;49.166;8.076;2023-02-13T22:22:21;8.80;58.90
46366;DHT22;32073;49.166;8.076;2023-02-13T22:26:25;8.70;58.90
46366;DHT22;32073;49.166;8.076;2023-02-13T22:30:35;8.70;58.90
46366;DHT22;32073;49.166;8.076;2023-02-13T22:34:35;8.70;58.90
46366;DHT22;32073;49.166;8.076;2023-02-13T22:38:37;8.60;58.90
46366;DHT22;32073;49.166;8.076;2023-02-13T22:42:39;8.60;58.90
46366;DHT22;32073;49.166;8.076;2023-02-13T22:46:39;8.60;58.90
46366;DHT22;32073;49.166;8.076;2023-02-13T22:50:40;8.60;58.90
46366;DHT22;32073;49.166;8.076;2023-02-13T22:54:41;8.60;59.00
46366;DHT22;32073;49.166;8.076;2023-02-13T22:58:41;8.50;58.90
46366;DHT22;32073;49.166;8.076;2023-02-13T23:02:42;8.50;58.90
46366;DHT22;32073;49.166;8.076;2023-02-13T23:06:42;8.50;58.90
46366;DHT22;32073;49.166;8.076;2023-02-13T23:10:43;8.50;58.90
46366;DHT22;32073;49.166;8.076;2023-02-13T23:15:14;8.40;58.90
46366;DHT22;32073;49.166;8.076;2023-02-13T23:19:15;8.40;58.90
46366;DHT22;32073;49.166;8.076;2023-02-13T23:23:16;8.40;58.80
46366;DHT22;32073;49.166;8.076;2023-02-13T23:27:16;8.30;58.80
46366;DHT22;32073;49.166;8.076;2023-02-13T23:31:17;8.30;58.70
46366;DHT22;32073;49.166;8.076;2023-02-13T23:35:18;8.20;58.80
46366;DHT22;32073;49.166;8.076;2023-02-13T23:39:18;8.20;58.80
46366;DHT22;32073;49.166;8.076;2023-02-13T23:43:20;8.20;58.80
46366;DHT22;32073;49.166;8.076;2023-02-13T23:47:21;8.10;59.40
46366;DHT22;32073;49.166;8.076;2023-02-13T23:51:21;8.10;58.70
46366;DHT22;32073;49.166;8.076;2023-02-13T23:55:24;8.00;58.70
46366;DHT22;32073;49.166;8.076;2023-02-13T23:59:25;8.00;58.80
